createdAt,value
2018-05-31T00:01:06.380Z,22.20
2018-05-31T00:03:33.152Z,22.70
2018-05-31T00:05:59.911Z,24.53
2018-05-31T00:08:26.657Z,23.10
2018-05-31T00:10:53.422Z,21.83
2018-05-31T00:13:20.182Z,22.23
2018-05-31T00:15:46.937Z,22.70
2018-05-31T00:18:13.684Z,22.10
2018-05-31T00:20:40.423Z,20.90
2018-05-31T00:23:07.170Z,20.47
2018-05-31T00:25:33.903Z,19.80
2018-05-31T00:28:00.672Z,18.67
2018-05-31T00:30:27.438Z,17.87
2018-05-31T00:32:54.182Z,17.57
2018-05-31T00:35:20.938Z,20.23
2018-05-31T00:37:47.718Z,18.87
2018-05-31T00:40:14.449Z,21.37
2018-05-31T00:42:41.194Z,22.87
2018-05-31T00:45:07.966Z,20.00
2018-05-31T00:47:34.733Z,19.10
2018-05-31T00:50:01.514Z,19.50
2018-05-31T00:52:28.258Z,21.43
2018-05-31T00:54:55.010Z,19.23
2018-05-31T00:57:21.772Z,20.40
2018-05-31T00:59:48.553Z,21.00
2018-05-31T01:02:15.285Z,23.37
2018-05-31T01:04:42.039Z,22.93
2018-05-31T01:07:08.803Z,23.00
2018-05-31T01:09:35.536Z,21.50
2018-05-31T01:12:02.305Z,22.63
2018-05-31T01:14:29.060Z,23.70
2018-05-31T01:16:55.814Z,21.87
2018-05-31T01:19:22.545Z,22.60
2018-05-31T01:21:49.290Z,23.63
2018-05-31T01:24:16.059Z,23.73
2018-05-31T01:26:42.802Z,22.77
2018-05-31T01:29:09.546Z,23.43
2018-05-31T01:31:36.291Z,24.83
2018-05-31T01:34:03.058Z,24.40
2018-05-31T01:36:29.828Z,22.83
2018-05-31T01:38:56.597Z,22.47
2018-05-31T01:41:23.351Z,21.70
2018-05-31T01:43:50.104Z,21.67
2018-05-31T01:46:16.880Z,22.47
2018-05-31T01:48:43.637Z,21.80
2018-05-31T01:51:10.377Z,21.73
2018-05-31T01:53:37.109Z,20.77
2018-05-31T01:56:03.864Z,21.57
2018-05-31T01:58:30.613Z,24.73
2018-05-31T02:00:57.379Z,21.60
2018-05-31T02:03:24.145Z,21.97
2018-05-31T02:05:54.763Z,22.60
2018-05-31T02:08:21.489Z,21.50
2018-05-31T02:10:48.235Z,22.37
2018-05-31T02:13:14.976Z,21.60
2018-05-31T02:15:41.720Z,23.37
2018-05-31T02:18:08.469Z,21.40
2018-05-31T02:20:35.215Z,21.77
2018-05-31T02:23:01.964Z,22.50
2018-05-31T02:25:28.711Z,22.27
2018-05-31T02:27:55.454Z,21.60
2018-05-31T02:30:22.222Z,21.13
2018-05-31T02:32:48.984Z,22.57
2018-05-31T02:35:15.738Z,23.07
2018-05-31T02:37:42.494Z,21.67
2018-05-31T02:40:09.246Z,21.03
2018-05-31T02:42:35.999Z,20.83
2018-05-31T02:45:02.737Z,20.70
2018-05-31T02:47:29.482Z,20.97
2018-05-31T02:49:56.237Z,19.93
2018-05-31T02:52:22.992Z,19.47
2018-05-31T02:54:49.739Z,19.83
2018-05-31T02:57:16.483Z,21.53
2018-05-31T02:59:43.232Z,20.47
2018-05-31T03:02:09.994Z,20.70
2018-05-31T03:04:36.736Z,20.40
2018-05-31T03:07:03.504Z,21.10
2018-05-31T03:09:30.263Z,20.43
2018-05-31T03:11:57.020Z,20.53
2018-05-31T03:14:23.790Z,20.40
2018-05-31T03:16:50.545Z,23.30
2018-05-31T03:19:17.315Z,20.27
2018-05-31T03:21:44.061Z,20.27
2018-05-31T03:24:10.819Z,22.87
2018-05-31T03:26:37.573Z,20.67
2018-05-31T03:29:04.342Z,20.23
2018-05-31T03:31:31.096Z,19.57
2018-05-31T03:33:57.834Z,20.07
2018-05-31T03:36:24.569Z,19.73
2018-05-31T03:38:51.307Z,20.07
2018-05-31T03:41:18.061Z,20.00
2018-05-31T03:43:44.810Z,21.40
2018-05-31T03:46:11.583Z,21.77
2018-05-31T03:48:38.329Z,21.90
2018-05-31T03:51:05.068Z,21.40
2018-05-31T03:53:31.831Z,20.13
2018-05-31T03:55:58.608Z,21.70
2018-05-31T03:58:25.359Z,21.57
2018-05-31T04:00:52.101Z,22.60
2018-05-31T04:03:18.856Z,22.07
2018-05-31T04:05:45.593Z,22.80
2018-05-31T04:08:12.354Z,21.67
2018-05-31T04:10:39.133Z,21.03
2018-05-31T04:13:05.913Z,21.50
2018-05-31T04:15:32.662Z,23.40
2018-05-31T04:17:59.420Z,22.07
2018-05-31T04:20:26.187Z,21.07
2018-05-31T04:22:52.949Z,22.50
2018-05-31T04:25:19.715Z,21.40
2018-05-31T04:27:46.467Z,20.50
2018-05-31T04:30:13.207Z,19.87
2018-05-31T04:32:39.953Z,19.03
2018-05-31T04:35:06.718Z,22.27
2018-05-31T04:37:33.457Z,23.37
2018-05-31T04:40:00.201Z,24.37
2018-05-31T04:42:26.962Z,22.90
2018-05-31T04:44:53.773Z,24.27
2018-05-31T04:47:20.510Z,26.50
2018-05-31T04:49:47.261Z,25.77
2018-05-31T04:52:14.013Z,24.13
2018-05-31T04:54:40.772Z,24.33
2018-05-31T04:57:07.520Z,25.33
2018-05-31T04:59:34.272Z,25.73
2018-05-31T05:02:01.033Z,26.13
2018-05-31T05:04:27.789Z,25.83
2018-05-31T05:06:54.566Z,26.37
2018-05-31T05:09:21.324Z,24.70
2018-05-31T05:11:48.072Z,25.67
2018-05-31T05:14:14.831Z,25.00
2018-05-31T05:16:41.577Z,23.63
2018-05-31T05:19:08.332Z,22.83
2018-05-31T05:21:35.090Z,24.83
2018-05-31T05:24:01.843Z,24.87
2018-05-31T05:26:28.705Z,22.20
2018-05-31T05:28:55.441Z,24.30
2018-05-31T05:31:22.180Z,22.87
2018-05-31T05:33:49.005Z,23.20
2018-05-31T05:36:15.767Z,24.87
2018-05-31T05:38:42.517Z,22.70
2018-05-31T05:41:09.258Z,21.37
2018-05-31T05:43:36.075Z,22.27
2018-05-31T05:46:02.788Z,23.57
2018-05-31T05:48:29.564Z,23.93
2018-05-31T05:50:56.317Z,23.20
2018-05-31T05:53:23.116Z,23.63
2018-05-31T05:55:49.895Z,21.40
2018-05-31T05:58:16.638Z,22.27
2018-05-31T06:00:43.404Z,30.07
2018-05-31T06:03:10.166Z,24.10
2018-05-31T06:05:36.949Z,24.70
2018-05-31T06:08:03.699Z,22.67
2018-05-31T06:10:30.526Z,20.63
2018-05-31T06:12:57.290Z,19.93
2018-05-31T06:15:25.114Z,20.10
2018-05-31T06:17:51.862Z,21.53
2018-05-31T06:20:18.617Z,20.40
2018-05-31T06:22:45.355Z,18.30
2018-05-31T06:25:12.097Z,22.03
2018-05-31T06:27:38.865Z,18.57
2018-05-31T06:30:05.632Z,18.47
2018-05-31T06:32:32.404Z,16.63
2018-05-31T06:34:59.166Z,19.57
2018-05-31T06:37:25.969Z,16.90
2018-05-31T06:39:52.707Z,19.83
2018-05-31T06:42:19.442Z,16.80
2018-05-31T06:44:46.187Z,17.50
2018-05-31T06:47:12.928Z,16.30
2018-05-31T06:49:39.666Z,15.23
2018-05-31T06:52:06.397Z,17.80
2018-05-31T06:54:33.141Z,16.20
2018-05-31T06:56:59.883Z,39.03
2018-05-31T06:59:26.611Z,24.17
2018-05-31T07:01:53.352Z,17.87
2018-05-31T07:04:20.153Z,17.47
2018-05-31T07:06:46.897Z,15.83
2018-05-31T07:09:13.646Z,14.37
2018-05-31T07:11:40.369Z,15.60
2018-05-31T07:14:07.116Z,15.87
2018-05-31T07:16:33.843Z,15.63
2018-05-31T07:19:00.586Z,15.37
2018-05-31T07:21:27.330Z,14.63
2018-05-31T07:23:54.085Z,15.80
2018-05-31T07:26:20.810Z,14.13
2018-05-31T07:28:47.552Z,20.37
2018-05-31T07:31:14.296Z,14.67
2018-05-31T07:33:41.047Z,15.27
2018-05-31T07:36:07.778Z,16.60
2018-05-31T07:38:34.508Z,20.87
2018-05-31T07:41:01.243Z,19.67
2018-05-31T07:43:27.986Z,14.53
2018-05-31T07:45:54.752Z,15.27
2018-05-31T07:48:21.497Z,23.70
2018-05-31T07:50:48.233Z,13.10
2018-05-31T07:53:14.966Z,14.20
2018-05-31T07:55:41.731Z,14.60
2018-05-31T07:58:08.503Z,14.90
2018-05-31T08:00:35.242Z,15.20
2018-05-31T08:03:01.996Z,13.73
2018-05-31T08:05:28.729Z,12.70
2018-05-31T08:07:55.572Z,14.17
2018-05-31T08:10:22.344Z,13.13
2018-05-31T08:12:49.089Z,13.63
2018-05-31T08:15:15.829Z,14.47
2018-05-31T08:17:42.576Z,16.23
2018-05-31T08:20:09.316Z,13.77
2018-05-31T08:22:36.051Z,15.50
2018-05-31T08:25:02.813Z,15.87
2018-05-31T08:27:29.562Z,15.27
2018-05-31T08:29:56.308Z,15.33
2018-05-31T08:32:23.079Z,16.03
2018-05-31T08:34:49.836Z,14.67
2018-05-31T08:37:16.597Z,14.43
2018-05-31T08:39:43.348Z,14.60
2018-05-31T08:42:10.079Z,13.70
2018-05-31T08:44:36.817Z,15.90
2018-05-31T08:47:03.540Z,14.83
2018-05-31T08:49:30.316Z,15.27
2018-05-31T08:51:57.051Z,16.13
2018-05-31T08:54:23.854Z,18.23
2018-05-31T08:56:50.610Z,13.97
2018-05-31T08:59:17.370Z,14.30
2018-05-31T09:01:44.227Z,15.30
2018-05-31T09:04:11.233Z,16.93
2018-05-31T09:06:38.005Z,18.77
2018-05-31T09:09:04.832Z,19.93
2018-05-31T09:11:31.640Z,16.03
2018-05-31T09:13:58.411Z,15.53
2018-05-31T09:16:25.157Z,15.30
2018-05-31T09:18:51.899Z,15.50
2018-05-31T09:21:18.635Z,15.90
2018-05-31T09:23:45.395Z,21.33
2018-05-31T09:26:12.128Z,16.07
2018-05-31T09:28:38.934Z,15.80
2018-05-31T09:31:05.653Z,17.97
2018-05-31T09:33:32.393Z,16.33
2018-05-31T09:35:59.143Z,16.60
2018-05-31T09:38:25.868Z,16.63
2018-05-31T09:40:52.593Z,17.90
2018-05-31T09:43:19.347Z,15.43
2018-05-31T09:45:46.070Z,15.30
2018-05-31T09:48:12.831Z,16.20
2018-05-31T09:50:39.548Z,16.50
2018-05-31T09:53:06.276Z,15.87
2018-05-31T09:55:33.012Z,15.47
2018-05-31T09:57:59.744Z,15.43
2018-05-31T10:00:32.321Z,16.40
2018-05-31T10:02:59.096Z,18.10
2018-05-31T10:05:25.828Z,14.93
2018-05-31T10:07:52.561Z,15.37
2018-05-31T10:10:19.308Z,20.90
2018-05-31T10:12:46.048Z,14.70
2018-05-31T10:15:12.788Z,16.73
2018-05-31T10:17:39.580Z,15.10
2018-05-31T10:20:06.346Z,15.90
2018-05-31T10:22:33.076Z,16.30
2018-05-31T10:24:59.839Z,15.03
2018-05-31T10:27:27.447Z,15.70
2018-05-31T10:29:54.200Z,17.50
2018-05-31T10:32:20.944Z,15.40
2018-05-31T10:34:47.722Z,18.60
2018-05-31T10:37:14.457Z,16.53
2018-05-31T10:39:41.264Z,16.23
2018-05-31T10:42:08.017Z,15.57
2018-05-31T10:44:34.778Z,16.03
2018-05-31T10:47:01.518Z,15.40
2018-05-31T10:49:28.249Z,14.27
2018-05-31T10:51:55.053Z,16.43
2018-05-31T10:54:21.791Z,15.37
2018-05-31T10:56:48.556Z,13.83
2018-05-31T10:59:15.330Z,13.40
2018-05-31T11:01:42.066Z,13.97
2018-05-31T11:04:08.817Z,15.10
2018-05-31T11:06:35.568Z,13.40
2018-05-31T11:09:02.331Z,12.47
2018-05-31T11:11:29.147Z,12.93
2018-05-31T11:13:55.884Z,12.57
2018-05-31T11:16:22.623Z,16.23
2018-05-31T11:18:49.350Z,14.10
2018-05-31T11:21:16.090Z,13.30
2018-05-31T11:23:42.821Z,16.33
2018-05-31T11:26:09.577Z,13.73
2018-05-31T11:28:36.319Z,15.23
2018-05-31T11:31:03.063Z,13.83
2018-05-31T11:33:29.801Z,13.40
2018-05-31T11:35:56.547Z,14.17
2018-05-31T11:38:23.308Z,12.87
2018-05-31T11:40:50.058Z,11.40
2018-05-31T11:43:16.797Z,11.43
2018-05-31T11:45:43.549Z,16.10
2018-05-31T11:48:10.285Z,12.37
2018-05-31T11:50:37.776Z,13.27
2018-05-31T11:53:04.551Z,12.40
2018-05-31T11:55:31.341Z,15.10
2018-05-31T11:57:58.074Z,18.37
2018-05-31T12:00:24.928Z,12.50
2018-05-31T12:02:51.649Z,12.10
2018-05-31T12:05:18.470Z,16.30
2018-05-31T12:07:45.216Z,14.00
2018-05-31T12:10:11.962Z,13.27
2018-05-31T12:12:38.758Z,14.70
2018-05-31T12:15:05.525Z,13.50
2018-05-31T12:17:32.353Z,12.77
2018-05-31T12:19:59.057Z,14.43
2018-05-31T12:22:25.815Z,12.30
2018-05-31T12:24:52.566Z,14.10
2018-05-31T12:27:19.319Z,15.43
2018-05-31T12:29:46.048Z,14.80
2018-05-31T12:32:12.831Z,20.20
2018-05-31T12:34:39.564Z,14.50
2018-05-31T12:37:06.301Z,12.80
2018-05-31T12:39:33.050Z,12.03
2018-05-31T12:41:59.780Z,13.13
2018-05-31T12:44:26.549Z,14.63
2018-05-31T12:46:53.286Z,12.37
2018-05-31T12:49:20.029Z,13.30
2018-05-31T12:51:46.781Z,13.17
2018-05-31T12:54:13.525Z,14.13
2018-05-31T12:56:40.262Z,13.70
2018-05-31T12:59:06.988Z,13.70
2018-05-31T13:01:33.716Z,12.70
2018-05-31T13:04:00.451Z,13.87
2018-05-31T13:06:27.196Z,13.57
2018-05-31T13:08:53.926Z,13.77
2018-05-31T13:11:20.694Z,14.20
2018-05-31T13:13:47.437Z,14.70
2018-05-31T13:16:14.197Z,13.33
2018-05-31T13:18:40.930Z,13.00
2018-05-31T13:21:07.657Z,15.30
2018-05-31T13:23:34.428Z,15.33
2018-05-31T13:26:01.167Z,15.53
2018-05-31T13:28:27.893Z,16.43
2018-05-31T13:30:54.617Z,16.30
2018-05-31T13:33:21.407Z,16.80
2018-05-31T13:35:48.129Z,17.07
2018-05-31T13:38:14.879Z,17.60
2018-05-31T13:40:41.588Z,14.87
2018-05-31T13:43:08.398Z,15.60
2018-05-31T13:45:35.145Z,16.20
2018-05-31T13:48:01.881Z,17.67
2018-05-31T13:50:28.623Z,16.43
2018-05-31T13:52:55.426Z,20.67
2018-05-31T13:55:22.156Z,15.73
2018-05-31T13:57:48.896Z,16.00
2018-05-31T14:00:15.640Z,15.83
2018-05-31T14:02:42.382Z,16.47
2018-05-31T14:05:09.116Z,20.43
2018-05-31T14:07:35.866Z,17.30
2018-05-31T14:10:02.615Z,16.63
2018-05-31T14:12:29.372Z,17.33
2018-05-31T14:14:56.198Z,17.50
2018-05-31T14:17:22.967Z,16.50
2018-05-31T14:19:49.688Z,18.03
2018-05-31T14:22:16.438Z,20.70
2018-05-31T14:24:43.166Z,17.77
2018-05-31T14:27:09.914Z,19.10
2018-05-31T14:29:36.656Z,18.80
2018-05-31T14:32:03.414Z,18.50
2018-05-31T14:34:30.133Z,18.47
2018-05-31T14:36:56.877Z,17.13
2018-05-31T14:39:23.606Z,19.23
2018-05-31T14:41:50.336Z,18.97
2018-05-31T14:44:17.101Z,17.27
2018-05-31T14:46:43.847Z,21.73
2018-05-31T14:49:10.619Z,18.17
2018-05-31T14:51:37.342Z,19.00
2018-05-31T14:54:04.103Z,18.73
2018-05-31T14:56:30.845Z,18.63
2018-05-31T14:58:57.580Z,18.60
2018-05-31T15:01:24.312Z,19.27
2018-05-31T15:03:51.053Z,21.73
2018-05-31T15:06:17.789Z,17.57
2018-05-31T15:08:44.504Z,18.70
2018-05-31T15:11:11.286Z,19.60
2018-05-31T15:13:38.118Z,21.43
2018-05-31T15:16:04.888Z,20.10
2018-05-31T15:18:31.656Z,18.57
2018-05-31T15:20:58.395Z,17.67
2018-05-31T15:23:25.133Z,18.17
2018-05-31T15:25:51.887Z,18.33
2018-05-31T15:28:18.617Z,19.53
2018-05-31T15:30:45.344Z,22.90
2018-05-31T15:33:12.078Z,20.30
2018-05-31T15:35:38.842Z,20.37
2018-05-31T15:38:05.608Z,21.30
2018-05-31T15:40:32.364Z,21.50
2018-05-31T15:42:59.100Z,19.17
2018-05-31T15:45:25.829Z,22.60
2018-05-31T15:47:52.558Z,22.80
2018-05-31T15:50:19.289Z,20.10
2018-05-31T15:52:46.047Z,20.73
2018-05-31T15:55:12.784Z,19.63
2018-05-31T15:57:39.516Z,23.87
2018-05-31T16:00:06.241Z,20.87
2018-05-31T16:02:32.986Z,21.37
2018-05-31T16:04:59.720Z,20.70
2018-05-31T16:07:26.441Z,21.03
2018-05-31T16:09:53.185Z,23.67
2018-05-31T16:12:19.922Z,20.63
2018-05-31T16:14:46.677Z,21.90
2018-05-31T16:17:13.425Z,25.13
2018-05-31T16:19:40.141Z,22.30
2018-05-31T16:22:06.920Z,22.23
2018-05-31T16:24:33.631Z,29.47
2018-05-31T16:27:00.367Z,23.00
2018-05-31T16:29:27.113Z,22.37
2018-05-31T16:31:53.907Z,22.67
2018-05-31T16:34:20.645Z,23.50
2018-05-31T16:36:47.377Z,21.10
2018-05-31T16:39:14.174Z,23.67
2018-05-31T16:41:40.900Z,21.77
2018-05-31T16:44:08.344Z,29.70
2018-05-31T16:46:35.165Z,22.40
2018-05-31T16:49:01.954Z,21.93
2018-05-31T16:51:28.706Z,23.50
2018-05-31T16:53:55.453Z,21.53
2018-05-31T16:56:22.189Z,21.90
2018-05-31T16:58:48.941Z,23.70
2018-05-31T17:01:15.690Z,25.03
2018-05-31T17:03:42.447Z,25.00
2018-05-31T17:06:09.177Z,21.57
2018-05-31T17:08:35.918Z,24.40
2018-05-31T17:11:02.649Z,22.40
2018-05-31T17:13:29.401Z,23.50
2018-05-31T17:16:00.178Z,22.80
2018-05-31T17:18:26.896Z,22.77
2018-05-31T17:20:53.637Z,21.87
2018-05-31T17:23:20.377Z,20.70
2018-05-31T17:25:47.137Z,23.87
2018-05-31T17:28:13.866Z,23.57
2018-05-31T17:30:40.596Z,21.97
2018-05-31T17:33:07.378Z,23.20
2018-05-31T17:35:34.131Z,24.57
2018-05-31T17:38:00.879Z,23.53
2018-05-31T17:40:27.610Z,24.43
2018-05-31T17:42:54.373Z,24.13
2018-05-31T17:45:21.099Z,23.83
2018-05-31T17:47:47.865Z,21.90
2018-05-31T17:50:14.624Z,24.03
2018-05-31T17:52:41.365Z,24.87
2018-05-31T17:55:08.096Z,23.90
2018-05-31T17:57:34.862Z,24.93
2018-05-31T18:00:01.634Z,25.27
2018-05-31T18:02:28.379Z,26.07
2018-05-31T18:04:55.188Z,24.33
2018-05-31T18:07:21.961Z,24.03
2018-05-31T18:09:48.856Z,24.87
2018-05-31T18:12:15.639Z,24.93
2018-05-31T18:14:42.362Z,24.00
2018-05-31T18:17:09.117Z,24.80
2018-05-31T18:19:35.894Z,26.93
2018-05-31T18:22:02.628Z,25.47
2018-05-31T18:24:29.361Z,23.70
2018-05-31T18:26:56.084Z,24.10
2018-05-31T18:29:22.860Z,26.67
2018-05-31T18:31:49.616Z,27.27
2018-05-31T18:34:16.349Z,26.50
2018-05-31T18:36:43.106Z,25.80
2018-05-31T18:39:09.859Z,24.43
2018-05-31T18:41:36.577Z,27.67
2018-05-31T18:44:03.353Z,27.60
2018-05-31T18:46:30.085Z,26.13
2018-05-31T18:48:56.858Z,25.40
2018-05-31T18:51:23.593Z,26.03
2018-05-31T18:53:50.409Z,26.40
2018-05-31T18:56:17.175Z,26.80
2018-05-31T18:58:43.941Z,30.03
2018-05-31T19:01:10.681Z,25.67
2018-05-31T19:03:37.430Z,25.37
2018-05-31T19:06:04.155Z,26.20
2018-05-31T19:08:30.919Z,25.73
2018-05-31T19:10:57.689Z,24.53
2018-05-31T19:13:30.226Z,26.93
2018-05-31T19:15:56.982Z,25.10
2018-05-31T19:18:29.535Z,27.07
2018-05-31T19:20:56.265Z,27.20
2018-05-31T19:23:23.004Z,26.77
2018-05-31T19:25:49.741Z,26.67
2018-05-31T19:28:16.527Z,27.60
2018-05-31T19:30:49.097Z,25.90
2018-05-31T19:33:15.827Z,25.93
2018-05-31T19:35:49.184Z,26.70
2018-05-31T19:38:15.929Z,26.60
2018-05-31T19:40:42.686Z,27.23
2018-05-31T19:43:15.154Z,26.20
2018-05-31T19:45:41.893Z,28.13
2018-05-31T19:48:08.676Z,26.37
2018-05-31T19:50:35.420Z,25.47
2018-05-31T19:53:07.859Z,26.00
2018-05-31T19:55:34.618Z,25.60
2018-05-31T19:58:07.197Z,25.13
2018-05-31T20:00:39.755Z,26.40
2018-05-31T20:03:12.032Z,27.13
2018-05-31T20:05:38.809Z,27.60
2018-05-31T20:08:05.555Z,24.87
2018-05-31T20:10:36.333Z,25.70
2018-05-31T20:13:03.106Z,26.17
2018-05-31T20:15:29.863Z,26.63
2018-05-31T20:17:56.715Z,26.33
2018-05-31T20:20:23.453Z,27.77
2018-05-31T20:22:50.193Z,26.53
2018-05-31T20:25:16.948Z,26.13
2018-05-31T20:27:43.717Z,27.07
2018-05-31T20:30:10.473Z,28.70
2018-05-31T20:32:37.210Z,26.97
2018-05-31T20:35:03.962Z,30.10
2018-05-31T20:37:30.718Z,29.37
2018-05-31T20:39:57.467Z,27.00
2018-05-31T20:42:24.208Z,28.20
2018-05-31T20:44:50.952Z,28.40
2018-05-31T20:47:17.703Z,27.20
2018-05-31T20:49:44.441Z,28.33
2018-05-31T20:52:11.187Z,29.80
2018-05-31T20:54:37.933Z,32.30
2018-05-31T20:57:04.709Z,28.73
2018-05-31T20:59:31.431Z,27.33
2018-05-31T21:01:58.193Z,28.73
2018-05-31T21:04:24.943Z,27.60
2018-05-31T21:06:51.685Z,30.60
2018-05-31T21:09:18.416Z,27.27
2018-05-31T21:11:45.136Z,29.37
2018-05-31T21:14:11.860Z,35.20
2018-05-31T21:16:38.578Z,28.30
2018-05-31T21:19:05.338Z,27.87
2018-05-31T21:21:32.089Z,28.43
2018-05-31T21:23:58.816Z,28.90
2018-05-31T21:26:25.549Z,29.00
2018-05-31T21:28:52.288Z,29.77
2018-05-31T21:31:19.018Z,27.93
2018-05-31T21:33:45.777Z,28.07
2018-05-31T21:36:12.505Z,29.43
2018-05-31T21:38:39.253Z,30.23
2018-05-31T21:41:06.004Z,30.67
2018-05-31T21:43:32.735Z,29.30
2018-05-31T21:45:59.469Z,32.97
2018-05-31T21:48:26.212Z,27.67
2018-05-31T21:50:52.932Z,27.97
2018-05-31T21:53:19.652Z,27.97
2018-05-31T21:55:46.393Z,28.53
2018-05-31T21:58:13.128Z,27.63
2018-05-31T22:00:45.536Z,29.83
2018-05-31T22:03:12.264Z,29.37
2018-05-31T22:05:39.003Z,30.53
2018-05-31T22:08:05.744Z,29.53
2018-05-31T22:10:32.472Z,29.10
2018-05-31T22:12:59.196Z,29.77
2018-05-31T22:15:25.938Z,29.67
2018-05-31T22:17:52.692Z,31.03
2018-05-31T22:20:19.434Z,28.53
2018-05-31T22:22:46.159Z,31.70
2018-05-31T22:25:12.900Z,31.30
2018-05-31T22:27:39.637Z,32.20
2018-05-31T22:30:06.369Z,30.73
2018-05-31T22:32:33.091Z,30.17
2018-05-31T22:34:59.834Z,30.50
2018-05-31T22:37:26.565Z,31.77
2018-05-31T22:39:53.296Z,32.43
2018-05-31T22:42:20.025Z,31.23
2018-05-31T22:44:46.761Z,30.77
2018-05-31T22:47:13.522Z,32.03
2018-05-31T22:49:40.262Z,29.50
2018-05-31T22:52:07.001Z,29.57
2018-05-31T22:54:33.727Z,29.50
2018-05-31T22:57:00.466Z,30.17
2018-05-31T22:59:27.190Z,29.97
2018-05-31T23:01:53.918Z,30.97
2018-05-31T23:04:20.635Z,30.97
2018-05-31T23:06:47.371Z,32.93
2018-05-31T23:09:14.103Z,32.90
2018-05-31T23:11:40.842Z,30.83
2018-05-31T23:14:07.589Z,34.00
2018-05-31T23:16:34.329Z,30.17
2018-05-31T23:19:01.059Z,30.17
2018-05-31T23:21:27.784Z,33.30
2018-05-31T23:23:54.520Z,28.40
2018-05-31T23:26:21.229Z,31.37
2018-05-31T23:28:47.986Z,30.00
2018-05-31T23:31:14.711Z,30.33
2018-05-31T23:33:41.439Z,28.60
2018-05-31T23:36:08.163Z,36.23
2018-05-31T23:38:34.891Z,29.13
2018-05-31T23:41:01.639Z,28.83
2018-05-31T23:43:28.357Z,29.23
2018-05-31T23:45:55.077Z,29.93
2018-05-31T23:48:21.812Z,27.67
2018-05-31T23:50:48.575Z,32.30
2018-05-31T23:53:15.297Z,33.83
2018-05-31T23:55:42.030Z,31.90
2018-05-31T23:58:08.753Z,32.17
